Time;durP1;ratioP1;P1;durP2;ratioP2;P2;SDS_P1;SDS_P2;PMS_P1;PMS_P2;Temp;Humidity;BMP_temperature;BMP_pressure;BME280_temperature;BME280_humidity;BME280_pressure;Samples;Min_cycle;Max_cycle;Signal;HPM_P1;HPM_P2
2021/03/14 00:00:51;;;;;;;21.15;13.00;;;;;;;1.63;92.67;98890.38;1802353;78;21158;-69
2021/03/14 00:03:21;;;;;;;20.12;12.82;;;;;;;1.61;92.62;98893.36;1802347;79;21099;-69
2021/03/14 00:05:51;;;;;;;19.62;12.40;;;;;;;1.59;92.56;98889.30;1802561;79;21467;-69
2021/03/14 00:08:21;;;;;;;23.67;13.60;;;;;;;1.58;92.70;98882.27;1802473;79;20949;-69
2021/03/14 00:10:54;;;;;;;24.05;13.35;;;;;;;1.57;92.76;98869.28;1802631;78;21047;-69
2021/03/14 00:13:30;;;;;;;22.20;13.45;;;;;;;1.54;92.73;98867.13;1802029;79;21272;-72
2021/03/14 00:15:58;;;;;;;22.25;13.25;;;;;;;1.51;92.92;98865.51;1802586;79;20983;-73
2021/03/14 00:18:31;;;;;;;20.23;11.40;;;;;;;1.49;92.87;98859.02;1802628;79;21004;-72
2021/03/14 00:20:59;;;;;;;23.00;11.97;;;;;;;1.46;93.07;98861.45;1802597;79;21471;-72
2021/03/14 00:23:26;;;;;;;22.22;12.53;;;;;;;1.44;93.15;98870.38;1795436;79;21559;-73
2021/03/14 00:25:55;;;;;;;24.23;13.15;;;;;;;1.41;93.26;98859.57;1782857;80;22268;-73
2021/03/14 00:28:23;;;;;;;20.37;12.07;;;;;;;1.40;93.36;98855.78;1782707;80;21088;-74
2021/03/14 00:30:51;;;;;;;26.07;13.28;;;;;;;1.38;93.77;98853.89;1782835;80;20933;-74
2021/03/14 00:33:19;;;;;;;20.23;11.53;;;;;;;1.38;93.80;98852.54;1782729;79;21071;-74
2021/03/14 00:35:46;;;;;;;18.50;11.25;;;;;;;1.37;93.89;98849.56;1782816;80;21551;-73
2021/03/14 00:38:15;;;;;;;20.65;13.08;;;;;;;1.37;93.91;98844.97;1782864;79;22254;-72
2021/03/14 00:40:42;;;;;;;24.63;13.10;;;;;;;1.35;94.15;98847.14;1782711;80;21075;-74
2021/03/14 00:43:10;;;;;;;26.02;14.05;;;;;;;1.35;94.28;98853.08;1782655;79;20925;-73
2021/03/14 00:45:39;;;;;;;21.97;12.75;;;;;;;1.33;94.30;98852.81;1782725;80;21154;-74
2021/03/14 00:48:08;;;;;;;20.95;11.73;;;;;;;1.32;94.69;98852.55;1778281;79;21062;-73
2021/03/14 00:50:40;;;;;;;22.02;13.50;;;;;;;1.32;94.54;98849.84;1782170;79;21520;-73
2021/03/14 00:53:09;;;;;;;21.25;12.88;;;;;;;1.31;94.50;98845.52;1781499;80;20933;-73
2021/03/14 00:55:38;;;;;;;21.60;13.55;;;;;;;1.31;94.47;98852.81;1781073;80;20922;-73
2021/03/14 00:58:06;;;;;;;23.80;13.93;;;;;;;1.29;94.33;98848.22;1781038;80;21586;-72
2021/03/14 01:00:35;;;;;;;27.67;17.48;;;;;;;1.27;94.38;98859.85;1781085;79;21084;-74
2021/03/14 01:03:04;;;;;;;35.48;21.50;;;;;;;1.24;94.49;98849.03;1781062;80;21385;-73
2021/03/14 01:05:34;;;;;;;34.90;21.73;;;;;;;1.24;94.60;98851.73;1780551;80;21183;-72
2021/03/14 01:08:01;;;;;;;36.58;18.98;;;;;;;1.22;94.45;98850.39;1781118;80;21500;-73
2021/03/14 01:10:31;;;;;;;38.23;21.02;;;;;;;1.19;94.64;98846.88;1781158;79;21505;-72
2021/03/14 01:12:58;;;;;;;31.73;19.73;;;;;;;1.14;94.67;98844.20;1781053;80;21060;-72
2021/03/14 01:15:26;;;;;;;32.33;19.48;;;;;;;1.09;94.80;98851.77;1781055;80;21251;-72
2021/03/14 01:17:56;;;;;;;38.73;22.35;;;;;;;1.05;94.91;98843.13;1780987;80;21151;-72
2021/03/14 01:20:23;;;;;;;32.40;17.48;;;;;;;1.00;94.95;98839.88;1781020;80;21032;-72
2021/03/14 01:22:52;;;;;;;27.67;16.40;;;;;;;0.96;94.96;98833.39;1780930;80;20945;-72
2021/03/14 01:25:20;;;;;;;33.83;15.00;;;;;;;0.92;95.22;98830.42;1784142;80;20936;-72
2021/03/14 01:27:49;;;;;;;25.20;16.00;;;;;;;0.90;95.36;98827.72;1783311;80;21362;-73
2021/03/14 01:30:18;;;;;;;30.52;16.52;;;;;;;0.89;95.48;98826.09;1784037;80;21091;-72
2021/03/14 01:32:46;;;;;;;23.80;14.93;;;;;;;0.85;95.91;98823.12;1784082;80;21136;-73
2021/03/14 01:35:14;;;;;;;30.05;15.45;;;;;;;0.82;96.31;98820.14;1784060;80;21024;-73
2021/03/14 01:37:43;;;;;;;21.75;13.18;;;;;;;0.79;96.87;98822.03;1784100;80;21055;-72
2021/03/14 01:40:15;;;;;;;31.27;16.27;;;;;;;0.77;96.69;98821.48;1784143;80;22310;-73
2021/03/14 01:42:42;;;;;;;32.65;20.08;;;;;;;0.73;96.81;98814.47;1784074;80;21490;-73
2021/03/14 01:45:14;;;;;;;29.07;18.02;;;;;;;0.70;97.01;98815.54;1784080;80;20942;-73
2021/03/14 01:47:50;;;;;;;39.08;22.73;;;;;;;0.66;97.36;98818.78;1784061;80;21082;-72
2021/03/14 01:50:24;;;;;;;42.30;24.30;;;;;;;0.65;97.76;98821.20;1784110;80;21070;-73
2021/03/14 01:52:54;;;;;;;29.90;17.75;;;;;;;0.65;98.12;98817.16;1784091;80;21364;-73
2021/03/14 01:55:23;;;;;;;34.85;20.02;;;;;;;0.64;98.16;98816.08;1784082;80;21093;-74
2021/03/14 01:57:53;;;;;;;33.80;20.30;;;;;;;0.62;98.25;98823.64;1783893;80;20961;-74
2021/03/14 02:00:23;;;;;;;33.45;18.52;;;;;;;0.61;98.41;98809.86;1784004;80;21966;-74
2021/03/14 02:02:51;;;;;;;29.25;16.45;;;;;;;0.59;98.56;98822.28;1784174;80;21475;-74
2021/03/14 02:05:20;;;;;;;26.37;16.07;;;;;;;0.58;98.68;98816.61;1784054;80;21380;-74
2021/03/14 02:07:52;;;;;;;25.60;14.75;;;;;;;0.57;98.75;98816.91;1784002;80;21096;-73
2021/03/14 02:10:23;;;;;;;35.85;17.57;;;;;;;0.55;98.91;98819.87;1784077;80;21071;-73
2021/03/14 02:13:09;;;;;;;29.87;17.55;;;;;;;0.53;98.97;98821.22;1784004;80;20901;-74
2021/03/14 02:15:41;;;;;;;28.42;14.85;;;;;;;0.51;98.95;98817.44;1784072;80;21118;-72
2021/03/14 02:18:08;;;;;;;31.85;17.05;;;;;;;0.48;99.20;98822.02;1784431;80;21355;-71
2021/03/14 02:20:37;;;;;;;27.15;15.78;;;;;;;0.48;99.23;98820.67;1756078;80;21120;-72
2021/03/14 02:23:31;;;;;;;29.77;15.15;;;;;;;0.45;99.23;98820.39;1783960;80;21011;-72
2021/03/14 02:26:07;;;;;;;;;;;;;;;0.42;99.26;98821.73;1786668;80;21068;-71
2021/03/14 02:28:35;;;;;;;34.33;16.55;;;;;;;0.39;99.44;98824.97;1784116;79;20183;-72
2021/03/14 02:31:05;;;;;;;29.95;16.85;;;;;;;0.36;99.75;98839.01;1784102;80;22124;-71
2021/03/14 02:33:35;;;;;;;31.45;18.12;;;;;;;0.34;99.64;98837.11;1784084;80;21530;-73
2021/03/14 02:36:05;;;;;;;32.83;16.65;;;;;;;0.32;100.00;98840.62;1784160;80;21499;-73
2021/03/14 02:38:33;;;;;;;31.35;17.25;;;;;;;0.32;100.00;98839.27;1755820;80;21091;-73
2021/03/14 02:41:00;;;;;;;33.42;16.27;;;;;;;0.29;100.00;98838.45;1784057;79;21055;-72
2021/03/14 02:43:28;;;;;;;36.73;18.17;;;;;;;0.29;100.00;98841.14;1783961;80;23590;-73
2021/03/14 02:45:55;;;;;;;29.98;16.73;;;;;;;0.29;100.00;98849.24;1783971;80;21027;-73
2021/03/14 02:48:23;;;;;;;32.60;18.95;;;;;;;0.32;100.00;98851.41;1784016;80;21043;-74
2021/03/14 02:50:51;;;;;;;33.95;18.52;;;;;;;0.33;100.00;98853.84;1784014;80;21087;-74
2021/03/14 02:53:19;;;;;;;36.23;19.30;;;;;;;0.36;100.00;98852.50;1784034;80;21201;-74
2021/03/14 02:55:46;;;;;;;40.52;22.70;;;;;;;0.39;100.00;98849.28;1784031;80;21211;-73
2021/03/14 02:58:14;;;;;;;39.78;22.05;;;;;;;0.41;100.00;98845.77;1783950;79;21031;-74
2021/03/14 03:00:42;;;;;;;45.45;23.45;;;;;;;0.43;100.00;98846.31;1784088;80;21498;-73
2021/03/14 03:03:11;;;;;;;44.42;23.52;;;;;;;0.44;100.00;98849.29;1784022;80;21059;-71
2021/03/14 03:05:39;;;;;;;37.70;20.85;;;;;;;0.47;100.00;98856.05;1783936;80;21061;-72
2021/03/14 03:08:07;;;;;;;42.83;24.15;;;;;;;0.48;100.00;98854.97;1784035;80;21196;-72
2021/03/14 03:10:41;;;;;;;42.27;24.25;;;;;;;0.50;100.00;98848.22;1783985;80;21098;-72
2021/03/14 03:13:10;;;;;;;43.75;23.25;;;;;;;0.53;100.00;98842.29;1784064;79;20948;-73
2021/03/14 03:15:38;;;;;;;43.45;22.00;;;;;;;0.55;100.00;98848.77;1784031;80;21590;-73
2021/03/14 03:18:06;;;;;;;50.33;23.57;;;;;;;0.56;100.00;98842.30;1783989;79;21145;-73
2021/03/14 03:20:34;;;;;;;46.95;25.27;;;;;;;0.57;100.00;98847.43;1784064;80;21375;-73
2021/03/14 03:23:02;;;;;;;50.85;26.30;;;;;;;0.58;100.00;98847.67;1783924;80;21083;-73
2021/03/14 03:25:30;;;;;;;52.60;26.55;;;;;;;0.59;100.00;98847.13;1781421;80;20926;-72
2021/03/14 03:27:58;;;;;;;59.67;30.48;;;;;;;0.59;100.00;98841.19;1780957;79;21114;-72
2021/03/14 03:30:27;;;;;;;59.27;29.23;;;;;;;0.60;100.00;98844.70;1780997;80;20930;-74
2021/03/14 03:32:54;;;;;;;54.15;28.80;;;;;;;0.59;100.00;98842.54;1780988;80;22346;-74
2021/03/14 03:35:22;;;;;;;64.05;31.00;;;;;;;0.61;100.00;98844.44;1780919;79;21563;-74
2021/03/14 03:37:50;;;;;;;63.02;28.50;;;;;;;0.62;100.00;98831.20;1780958;79;20942;-73
2021/03/14 03:40:21;;;;;;;65.47;29.72;;;;;;;0.62;100.00;98823.09;1780938;80;21118;-74
2021/03/14 03:43:03;;;;;;;60.38;29.25;;;;;;;0.61;100.00;98821.47;1780967;79;21092;-74
2021/03/14 03:45:35;;;;;;;61.85;29.02;;;;;;;0.60;100.00;98817.16;1781449;80;21357;-74
2021/03/14 03:48:05;;;;;;;67.70;30.02;;;;;;;0.61;100.00;98816.61;1781080;80;21186;-74
2021/03/14 03:50:35;;;;;;;67.70;29.82;;;;;;;0.60;100.00;98817.69;1751476;80;21163;-73
2021/03/14 03:53:03;;;;;;;62.85;29.12;;;;;;;0.60;100.00;98806.89;1772250;80;21132;-73
2021/03/14 03:55:30;;;;;;;63.25;28.45;;;;;;;0.56;100.00;98807.19;1735832;82;21124;-72
2021/03/14 03:57:58;;;;;;;62.25;27.50;;;;;;;0.55;100.00;98806.91;1735894;82;21458;-73
2021/03/14 04:00:25;;;;;;;66.65;30.05;;;;;;;0.54;100.00;98801.23;1735815;82;20981;-73
2021/03/14 04:02:53;;;;;;;61.63;28.60;;;;;;;0.53;100.00;98800.42;1659560;82;21120;-73
2021/03/14 04:05:21;;;;;;;62.00;28.07;;;;;;;0.52;100.00;98799.34;1735991;82;20949;-73
2021/03/14 04:07:49;;;;;;;59.20;27.50;;;;;;;0.50;100.00;98801.50;1735866;82;20950;-73
2021/03/14 04:10:20;;;;;;;50.63;24.60;;;;;;;0.47;100.00;98789.89;1735800;82;22171;-73
2021/03/14 04:12:50;;;;;;;58.70;29.12;;;;;;;0.47;100.00;98795.28;1735945;82;20997;-73
2021/03/14 04:15:22;;;;;;;56.55;26.82;;;;;;;0.47;100.00;98792.05;1705475;82;21013;-73
2021/03/14 04:17:49;;;;;;;52.62;25.90;;;;;;;0.45;100.00;98792.05;1736084;82;21067;-72
2021/03/14 04:20:20;;;;;;;57.70;26.75;;;;;;;0.43;100.00;98787.45;1705217;82;21168;-73
2021/03/14 04:22:52;;;;;;;60.95;28.92;;;;;;;0.43;100.00;98798.25;1735766;82;21416;-72
2021/03/14 04:25:21;;;;;;;58.52;27.55;;;;;;;0.42;100.00;98802.03;1737020;82;21096;-73
2021/03/14 04:27:49;;;;;;;67.32;30.48;;;;;;;0.40;100.00;98798.24;1738092;82;21072;-73
2021/03/14 04:30:18;;;;;;;59.25;27.70;;;;;;;0.37;100.00;98802.83;1738203;81;21965;-73
2021/03/14 04:32:47;;;;;;;57.73;28.70;;;;;;;0.36;100.00;98803.91;1738298;82;21567;-73
2021/03/14 04:35:15;;;;;;;63.58;27.45;;;;;;;0.36;100.00;98801.20;1738105;82;22272;-74
2021/03/14 04:37:42;;;;;;;62.30;29.42;;;;;;;0.32;100.00;98801.47;1738126;82;20957;-73
2021/03/14 04:40:12;;;;;;;61.50;27.80;;;;;;;0.29;100.00;98798.77;1738136;81;21100;-73
2021/03/14 04:42:45;;;;;;;57.13;25.80;;;;;;;0.29;100.00;98800.66;1738005;82;21175;-73
2021/03/14 04:45:12;;;;;;;59.77;27.15;;;;;;;0.27;100.00;98792.01;1738135;82;27149;-72
2021/03/14 04:47:43;;;;;;;54.85;26.60;;;;;;;0.26;100.00;98796.59;1711230;82;21333;-72
2021/03/14 04:50:14;;;;;;;68.07;32.38;;;;;;;0.23;100.00;98805.23;1738127;82;21092;-72
2021/03/14 04:52:44;;;;;;;65.72;34.10;;;;;;;0.22;100.00;98819.80;1711396;82;21146;-73
2021/03/14 04:55:13;;;;;;;69.80;36.38;;;;;;;0.20;100.00;98831.94;1738108;82;21127;-72
2021/03/14 04:57:41;;;;;;;63.70;30.97;;;;;;;0.20;100.00;98827.35;1738192;82;21516;-73
2021/03/14 05:00:12;;;;;;;56.88;29.60;;;;;;;0.19;100.00;98824.92;1738012;82;21145;-72
2021/03/14 05:02:43;;;;;;;47.03;22.98;;;;;;;0.19;100.00;98828.97;1738091;82;21068;-72
2021/03/14 05:05:13;;;;;;;51.30;27.75;;;;;;;0.16;100.00;98823.56;1738305;81;21103;-73
2021/03/14 05:07:44;;;;;;;48.85;24.18;;;;;;;0.13;100.00;98820.05;1737988;82;20969;-72
2021/03/14 05:10:16;;;;;;;;;;;;;;;0.13;100.00;98812.48;1740607;82;21218;-74
2021/03/14 05:12:45;;;;;;;39.92;20.25;;;;;;;0.13;100.00;98810.59;1738159;81;21449;-72
2021/03/14 05:15:15;;;;;;;33.80;18.95;;;;;;;0.15;100.00;98807.09;1738402;82;21092;-74
2021/03/14 05:17:44;;;;;;;39.53;19.75;;;;;;;0.14;100.00;98803.31;1738517;82;20949;-72
2021/03/14 05:20:15;;;;;;;33.10;17.60;;;;;;;0.15;100.00;98811.67;1738491;82;21095;-70
2021/03/14 05:22:45;;;;;;;37.35;19.42;;;;;;;0.16;100.00;98815.46;1738663;82;21528;-70
2021/03/14 05:25:19;;;;;;;32.73;17.65;;;;;;;0.19;100.00;98812.77;1737320;82;21260;-76
2021/03/14 05:27:50;;;;;;;32.08;17.23;;;;;;;0.22;100.00;98810.35;1736080;82;21020;-75
2021/03/14 05:30:25;;;;;;;33.10;18.25;;;;;;;0.23;100.00;98807.92;1736158;82;20957;-72
2021/03/14 05:32:55;;;;;;;32.35;18.42;;;;;;;0.25;100.00;98798.21;1736116;82;21167;-70
2021/03/14 05:35:25;;;;;;;39.15;19.80;;;;;;;0.27;100.00;98799.56;1736162;81;20950;-70
2021/03/14 05:37:56;;;;;;;36.28;18.45;;;;;;;0.29;100.00;98794.71;1736113;81;21198;-70
2021/03/14 05:40:25;;;;;;;35.65;19.87;;;;;;;0.33;100.00;98797.69;1735803;82;21668;-70
2021/03/14 05:42:53;;;;;;;36.70;18.02;;;;;;;0.34;100.00;98791.21;1736890;82;21100;-69
2021/03/14 05:45:21;;;;;;;37.03;18.40;;;;;;;0.40;100.00;98802.30;1735877;81;21048;-71
2021/03/14 05:47:49;;;;;;;37.42;19.60;;;;;;;0.43;100.00;98796.90;1733705;82;21505;-72
2021/03/14 05:50:24;;;;;;;34.20;18.87;;;;;;;0.45;100.00;98797.44;1732970;82;21210;-71
2021/03/14 05:52:51;;;;;;;34.27;18.48;;;;;;;0.47;100.00;98795.28;1732986;82;21164;-68
2021/03/14 05:55:25;;;;;;;36.20;19.45;;;;;;;0.50;100.00;98791.52;1732706;82;21156;-68
2021/03/14 05:57:54;;;;;;;33.35;17.75;;;;;;;0.52;100.00;98792.05;1706851;82;21732;-76
2021/03/14 06:00:28;;;;;;;30.70;17.60;;;;;;;0.54;100.00;98795.30;1704292;84;20989;-69
2021/03/14 06:02:58;;;;;;;32.08;17.02;;;;;;;0.54;100.00;98783.69;1705116;84;21223;-71
2021/03/14 06:05:30;;;;;;;30.75;16.95;;;;;;;0.55;100.00;98791.52;1705269;84;21068;-71
2021/03/14 06:07:58;;;;;;;36.98;17.57;;;;;;;0.58;100.00;98792.84;1705043;84;21018;-68
2021/03/14 06:10:29;;;;;;;35.55;19.35;;;;;;;0.59;100.00;98788.52;1705156;84;21576;-69
2021/03/14 06:12:58;;;;;;;29.05;18.10;;;;;;;0.62;100.00;98793.92;1705226;82;21204;-71
2021/03/14 06:15:27;;;;;;;30.65;16.32;;;;;;;0.64;100.00;98793.12;1675521;84;22756;-69
2021/03/14 06:17:54;;;;;;;32.20;18.10;;;;;;;0.67;100.00;98787.17;1669755;84;21226;-69
2021/03/14 06:20:41;;;;;;;30.50;16.20;;;;;;;0.71;100.00;98792.31;1731797;82;21085;-72
2021/03/14 06:23:16;;;;;;;34.43;18.12;;;;;;;0.77;100.00;98787.72;1733084;82;20990;-72
2021/03/14 06:25:49;;;;;;;34.05;17.70;;;;;;;0.82;100.00;98792.58;1732487;81;21152;-70
2021/03/14 06:28:17;;;;;;;28.57;16.15;;;;;;;0.83;100.00;98806.36;1733202;82;21378;-72
2021/03/14 06:30:45;;;;;;;32.33;17.95;;;;;;;0.83;100.00;98793.39;1733353;82;21156;-76
2021/03/14 06:33:18;;;;;;;35.20;19.55;;;;;;;0.84;100.00;98811.23;1733492;82;21072;-70
2021/03/14 06:35:54;;;;;;;29.72;16.35;;;;;;;0.87;100.00;98814.74;1733671;82;28638;-69
2021/03/14 06:38:28;;;;;;;29.02;17.05;;;;;;;0.91;100.00;98815.83;1733638;82;21108;-68
2021/03/14 06:41:21;;;;;;;27.25;15.80;;;;;;;0.93;100.00;98803.66;1733491;81;21378;-68
2021/03/14 06:43:56;;;;;;;31.55;17.77;;;;;;;0.95;100.00;98811.50;1733306;82;21085;-83
2021/03/14 06:46:29;;;;;;;31.60;16.35;;;;;;;0.93;100.00;98806.37;1733515;82;21068;-72
2021/03/14 06:49:13;;;;;;;29.25;16.42;;;;;;;0.96;100.00;98805.02;1733059;82;21091;-72
2021/03/14 06:51:45;;;;;;;34.08;18.00;;;;;;;0.96;100.00;98800.42;1733782;82;21053;-73
2021/03/14 06:54:28;;;;;;;36.68;22.52;;;;;;;0.93;100.00;98812.31;1733625;82;21214;-72
2021/03/14 06:57:13;;;;;;;30.37;18.55;;;;;;;0.93;100.00;98814.48;1733367;82;21012;-73
2021/03/14 06:59:51;;;;;;;31.15;16.30;;;;;;;0.98;100.00;98810.42;1733455;82;21085;-70
2021/03/14 07:02:31;;;;;;;28.12;16.52;;;;;;;1.06;100.00;98815.02;1704226;82;21152;-71
2021/03/14 07:05:01;;;;;;;29.98;16.85;;;;;;;1.11;100.00;98811.77;1733237;82;21037;-70
2021/03/14 07:07:41;;;;;;;28.85;17.00;;;;;;;1.14;100.00;98820.69;1732925;82;21380;-70
2021/03/14 07:10:12;;;;;;;39.58;24.98;;;;;;;1.14;100.00;98824.73;1732232;82;21096;-72
2021/03/14 07:12:44;;;;;;;33.38;18.48;;;;;;;1.13;100.00;98832.58;1733142;82;21133;-71
2021/03/14 07:15:19;;;;;;;25.35;14.43;;;;;;;1.16;100.00;98831.20;1733291;82;26488;-77
2021/03/14 07:18:03;;;;;;;22.27;13.40;;;;;;;1.15;100.00;98829.61;1733324;82;21120;-77
2021/03/14 07:20:31;;;;;;;26.45;14.95;;;;;;;1.13;99.99;98824.47;1721191;82;22053;-71
2021/03/14 07:23:03;;;;;;;22.60;12.73;;;;;;;1.11;99.71;98827.98;1705159;84;21567;-73
2021/03/14 07:25:45;;;;;;;26.27;15.75;;;;;;;1.17;99.90;98822.00;1873312;76;22790;-74
2021/03/14 07:28:13;;;;;;;25.45;13.35;;;;;;;1.16;99.91;98834.71;1841093;78;21014;-72
2021/03/14 07:30:41;;;;;;;24.55;13.22;;;;;;;1.21;99.57;98830.65;1841336;77;21698;-73
2021/03/14 07:33:08;;;;;;;30.43;15.78;;;;;;;1.22;99.27;98825.52;1783751;78;20932;-79
2021/03/14 07:35:36;;;;;;;27.45;13.55;;;;;;;1.26;99.22;98823.08;1783592;78;21015;-77
2021/03/14 07:38:04;;;;;;;25.60;14.00;;;;;;;1.28;99.01;98813.61;1841029;78;20940;-73
2021/03/14 07:40:32;;;;;;;23.02;13.50;;;;;;;1.31;99.00;98817.13;1841369;78;20917;-75
2021/03/14 07:43:00;;;;;;;20.10;11.80;;;;;;;1.38;98.55;98808.73;1831125;77;21793;-74
2021/03/14 07:45:30;;;;;;;17.15;10.50;;;;;;;1.41;97.96;98800.06;1809496;78;20951;-76
2021/03/14 07:47:59;;;;;;;17.67;9.83;;;;;;;1.46;97.62;98804.11;1788287;79;21044;-74
2021/03/14 07:50:43;;;;;;;19.32;10.48;;;;;;;1.50;96.80;98808.44;1784310;78;21018;-73
2021/03/14 07:53:13;;;;;;;16.00;10.25;;;;;;;1.49;96.04;98813.03;1782255;79;21113;-77
2021/03/14 07:55:40;;;;;;;19.82;10.90;;;;;;;1.52;96.49;98818.44;1782424;80;21400;-73
2021/03/14 07:58:12;;;;;;;17.05;10.98;;;;;;;1.58;95.85;98825.45;1782390;80;21632;-73
2021/03/14 08:00:42;;;;;;;19.17;11.35;;;;;;;1.59;95.28;98835.20;1782549;80;21544;-72
2021/03/14 08:03:10;;;;;;;18.80;11.50;;;;;;;1.60;95.24;98833.57;1782371;80;21144;-71
2021/03/14 08:05:45;;;;;;;21.68;13.00;;;;;;;1.61;95.00;98831.67;1782316;80;21168;-74
2021/03/14 08:08:27;;;;;;;21.07;13.03;;;;;;;1.60;95.14;98833.57;1782352;80;21708;-73
2021/03/14 08:10:56;;;;;;;18.67;11.80;;;;;;;1.61;95.36;98843.84;1781691;80;21659;-74
2021/03/14 08:13:35;;;;;;;22.65;11.90;;;;;;;1.60;95.34;98836.27;1800805;78;21146;-73
2021/03/14 08:16:07;;;;;;;18.98;11.15;;;;;;;1.63;95.57;98834.37;1776215;80;21580;-75
2021/03/14 08:18:44;;;;;;;21.50;12.75;;;;;;;1.68;95.59;98832.20;1799195;79;21527;-74
2021/03/14 08:21:29;;;;;;;18.73;11.48;;;;;;;1.71;95.33;98835.70;1806493;79;21450;-74
2021/03/14 08:23:59;;;;;;;19.37;11.10;;;;;;;1.71;95.38;98827.59;1801584;78;21581;-74
2021/03/14 08:26:29;;;;;;;20.85;11.50;;;;;;;1.75;95.33;98820.52;1798576;78;21081;-75
2021/03/14 08:29:09;;;;;;;20.52;13.48;;;;;;;1.79;95.46;98821.58;1798420;79;21039;-74
2021/03/14 08:31:50;;;;;;;19.55;11.45;;;;;;;1.84;95.07;98820.20;1797407;78;21129;-74
2021/03/14 08:34:32;;;;;;;22.67;13.60;;;;;;;1.86;94.91;98824.80;1797980;79;21380;-73
2021/03/14 08:37:04;;;;;;;24.55;15.03;;;;;;;1.95;95.64;98832.63;1797154;78;21184;-71
2021/03/14 08:39:40;;;;;;;27.22;18.07;;;;;;;2.11;95.53;98837.43;1797984;79;21050;-72
2021/03/14 08:42:24;;;;;;;19.32;12.20;;;;;;;2.21;94.68;98836.58;1762947;78;21205;-72
2021/03/14 08:44:53;;;;;;;18.50;12.07;;;;;;;2.29;94.17;98830.58;1742347;80;21177;-70
2021/03/14 08:47:31;;;;;;;16.45;11.15;;;;;;;2.39;93.49;98814.25;1872473;76;22659;-70
2021/03/14 08:50:01;;;;;;;19.35;12.60;;;;;;;2.41;93.00;98828.86;1840299;78;20952;-70
2021/03/14 08:52:31;;;;;;;20.80;13.45;;;;;;;2.45;92.72;98809.06;1839553;78;21524;-72
2021/03/14 08:55:10;;;;;;;19.77;12.33;;;;;;;2.53;92.46;98805.76;1838813;78;21008;-73
2021/03/14 08:57:38;;;;;;;29.70;14.45;;;;;;;2.60;91.36;98797.31;1840435;78;21522;-75
2021/03/14 09:00:07;;;;;;;25.80;12.90;;;;;;;2.62;91.13;98791.88;1840804;78;21052;-73
2021/03/14 09:02:37;;;;;;;16.97;11.43;;;;;;;2.63;90.94;98789.44;1839497;78;20988;-73
2021/03/14 09:05:16;;;;;;;16.37;9.25;;;;;;;2.65;91.43;98798.09;1840346;77;21195;-75
2021/03/14 09:08:01;;;;;;;17.77;10.20;;;;;;;2.72;91.26;98793.70;1841118;77;21546;-72
2021/03/14 09:10:35;;;;;;;19.12;10.43;;;;;;;2.74;90.64;98784.75;1840406;78;21012;-73
2021/03/14 09:13:04;;;;;;;18.77;11.97;;;;;;;2.80;90.88;98795.01;1827911;78;21597;-74
2021/03/14 09:15:36;;;;;;;16.87;10.65;;;;;;;2.84;90.56;98789.28;1839781;78;21141;-73
2021/03/14 09:18:25;;;;;;;16.50;10.68;;;;;;;2.90;90.12;98789.48;1841316;78;21860;-73
2021/03/14 09:21:00;;;;;;;16.73;11.60;;;;;;;2.91;89.68;98785.12;1841552;77;21000;-73
2021/03/14 09:23:42;;;;;;;22.90;15.40;;;;;;;3.02;89.85;98783.69;1890147;76;22228;-72
2021/03/14 09:26:11;;;;;;;18.30;11.28;;;;;;;3.02;89.69;98780.42;1860144;77;20865;-67
2021/03/14 09:28:44;;;;;;;24.90;15.88;;;;;;;3.05;89.72;98778.50;1860947;77;21183;-72
2021/03/14 09:31:14;;;;;;;26.27;18.95;;;;;;;3.06;89.59;98785.55;1860739;77;21066;-72
2021/03/14 09:33:44;;;;;;;26.25;17.07;;;;;;;3.09;89.42;98779.55;1860108;77;20880;-71
2021/03/14 09:36:14;;;;;;;29.37;18.77;;;;;;;3.09;89.00;98788.23;1860141;77;20904;-69
2021/03/14 09:38:44;;;;;;;17.48;11.38;;;;;;;3.11;89.51;98780.08;1860666;77;21081;-69
2021/03/14 09:41:16;;;;;;;22.25;15.90;;;;;;;3.18;89.24;98787.88;1859856;77;22109;-71
2021/03/14 09:43:45;;;;;;;16.05;10.35;;;;;;;3.21;89.34;98779.17;1873304;76;21059;-71
2021/03/14 09:46:12;;;;;;;16.75;9.80;;;;;;;3.30;89.17;98778.81;1807191;79;20923;-70
2021/03/14 09:49:12;;;;;;;14.98;9.30;;;;;;;3.30;88.29;98778.81;1755620;81;21659;-69
2021/03/14 09:51:42;;;;;;;15.72;9.00;;;;;;;3.17;88.34;98776.22;1755676;81;21097;-69
2021/03/14 09:54:11;;;;;;;16.15;10.53;;;;;;;3.13;89.06;98773.81;1787174;78;22355;-68
2021/03/14 09:56:40;;;;;;;14.80;9.50;;;;;;;3.15;89.15;98771.63;1807092;79;21581;-69
2021/03/14 09:59:27;;;;;;;15.50;10.05;;;;;;;3.15;89.26;98775.70;1800738;78;21023;-71
2021/03/14 10:02:26;;;;;;;16.17;10.13;;;;;;;3.22;89.06;98764.52;1860334;75;23271;-70
2021/03/14 10:05:15;;;;;;;15.15;9.60;;;;;;;3.20;89.14;98766.70;1830446;77;20989;-70
2021/03/14 10:07:48;;;;;;;18.52;10.05;;;;;;;3.25;88.94;98752.55;1835583;78;21311;-70
2021/03/14 10:10:16;;;;;;;;;;;;;;;3.33;88.46;98755.73;1800024;78;21007;-71
2021/03/14 10:12:47;;;;;;;13.78;9.75;;;;;;;3.38;88.12;98763.27;1828794;76;20481;-71
2021/03/14 10:15:17;;;;;;;17.87;10.50;;;;;;;3.41;87.85;98750.48;1796706;78;21051;-71
2021/03/14 10:17:46;;;;;;;18.40;11.25;;;;;;;3.44;87.59;98749.09;1758300;81;20998;-69
2021/03/14 10:20:15;;;;;;;19.75;11.90;;;;;;;3.45;87.77;98746.64;1720775;82;21205;-69
2021/03/14 10:22:43;;;;;;;19.45;12.00;;;;;;;3.48;87.22;98749.56;1684322;82;21650;-70
2021/03/14 10:25:27;;;;;;;19.02;11.85;;;;;;;3.51;87.30;98743.55;1749626;82;21001;-69
2021/03/14 10:28:13;;;;;;;17.37;11.45;;;;;;;3.53;86.86;98740.00;1750671;81;21162;-71
2021/03/14 10:31:00;;;;;;;20.90;11.90;;;;;;;3.58;87.23;98733.16;1748827;82;21132;-69
2021/03/14 10:33:31;;;;;;;19.90;12.85;;;;;;;3.60;86.60;98733.69;1750709;82;21368;-69
2021/03/14 10:36:09;;;;;;;23.87;14.00;;;;;;;3.61;86.51;98739.92;1750586;80;21225;-70
2021/03/14 10:39:07;;;;;;;22.73;13.30;;;;;;;3.58;86.29;98737.23;1750701;81;21027;-72
2021/03/14 10:41:48;;;;;;;20.85;12.15;;;;;;;3.57;86.67;98734.81;1731596;82;21599;-72
2021/03/14 10:44:23;;;;;;;20.48;11.93;;;;;;;3.58;86.49;98733.71;1729799;82;21199;-74
2021/03/14 10:46:55;;;;;;;21.07;12.70;;;;;;;3.58;86.63;98731.00;1725112;83;22374;-73
2021/03/14 10:49:29;;;;;;;18.75;11.88;;;;;;;3.60;86.75;98722.83;1725240;83;21211;-73
2021/03/14 10:52:00;;;;;;;22.35;13.43;;;;;;;3.57;86.64;98711.19;1725551;81;21162;-72
2021/03/14 10:54:33;;;;;;;23.20;14.13;;;;;;;3.58;86.83;98708.73;1725843;81;21186;-73
2021/03/14 10:57:14;;;;;;;24.72;13.78;;;;;;;3.62;86.90;98721.98;1725954;82;21193;-71
2021/03/14 10:59:43;;;;;;;25.20;14.13;;;;;;;3.64;86.98;98714.91;1702358;83;21659;-71
2021/03/14 11:02:19;;;;;;;25.25;14.45;;;;;;;3.65;86.40;98705.67;1723859;83;21567;-72
2021/03/14 11:04:58;;;;;;;27.05;16.35;;;;;;;3.65;86.56;98711.10;1725898;83;21206;-71
2021/03/14 11:07:34;;;;;;;26.37;15.72;;;;;;;3.67;86.89;98704.02;1725747;82;21649;-72
2021/03/14 11:10:15;;;;;;;27.22;16.77;;;;;;;3.69;86.46;98699.92;1724227;83;21607;-74
2021/03/14 11:12:50;;;;;;;28.98;16.42;;;;;;;3.73;86.33;98697.43;1725435;83;22211;-74
2021/03/14 11:15:33;;;;;;;41.75;22.70;;;;;;;3.83;86.36;98691.88;1721905;81;21147;-77
2021/03/14 11:18:22;;;;;;;34.65;17.62;;;;;;;4.00;86.51;98684.58;1866956;75;22694;-73
2021/03/14 11:20:52;;;;;;;34.20;15.95;;;;;;;4.12;84.67;98676.77;1824136;78;21481;-75
2021/03/14 11:23:19;;;;;;;25.88;16.42;;;;;;;4.12;84.67;98676.77;1827320;78;21198;-75
2021/03/14 11:25:47;;;;;;;26.87;14.23;;;;;;;4.12;84.41;98683.56;1827295;78;21551;-72
2021/03/14 11:28:14;;;;;;;25.95;14.25;;;;;;;4.11;84.90;98671.08;1827786;78;20989;-73
2021/03/14 11:30:43;;;;;;;27.77;14.38;;;;;;;4.19;84.86;98676.66;1827295;78;20930;-79
2021/03/14 11:33:10;;;;;;;26.65;15.50;;;;;;;4.28;84.22;98665.38;1827354;78;21468;-72
2021/03/14 11:35:39;;;;;;;27.87;16.48;;;;;;;4.33;83.68;98661.77;1824296;78;22545;-78
2021/03/14 11:38:12;;;;;;;;;;;;;;;4.42;83.48;98660.55;1827932;78;21088;-76
2021/03/14 11:40:44;;;;;;;27.42;15.08;;;;;;;4.49;83.61;98662.34;1826032;78;20128;-71
2021/03/14 11:43:26;;;;;;;28.27;14.93;;;;;;;4.68;83.42;98655.47;1816197;77;20978;-73
2021/03/14 11:46:04;;;;;;;32.20;15.00;;;;;;;4.74;83.23;98655.63;1873737;75;22696;-75